createdAt,value
2017-03-04T00:00:31.301Z,7.61
2017-03-04T00:01:32.022Z,7.63
2017-03-04T00:02:32.765Z,7.57
2017-03-04T00:03:33.481Z,7.66
2017-03-04T00:04:34.208Z,7.67
2017-03-04T00:05:34.912Z,7.66
2017-03-04T00:06:35.629Z,7.54
2017-03-04T00:07:36.348Z,7.61
2017-03-04T00:08:37.063Z,7.6
2017-03-04T00:09:37.794Z,7.57
2017-03-04T00:10:38.505Z,7.53
2017-03-04T00:11:39.229Z,7.5
2017-03-04T00:12:39.942Z,7.45
2017-03-04T00:13:40.652Z,7.43
2017-03-04T00:14:41.377Z,7.48
2017-03-04T00:15:42.100Z,7.42
2017-03-04T00:16:42.818Z,7.42
2017-03-04T00:17:43.530Z,7.35
2017-03-04T00:18:44.244Z,7.42
2017-03-04T00:19:44.966Z,7.36
2017-03-04T00:20:45.677Z,7.4
2017-03-04T00:21:46.403Z,7.33
2017-03-04T00:22:47.115Z,7.36
2017-03-04T00:23:47.815Z,7.29
2017-03-04T00:24:48.536Z,7.28
2017-03-04T00:25:49.264Z,7.21
2017-03-04T00:26:49.979Z,7.29
2017-03-04T00:27:50.700Z,7.24
2017-03-04T00:28:51.446Z,7.29
2017-03-04T00:29:52.155Z,7.29
2017-03-04T00:30:52.874Z,7.21
2017-03-04T00:31:53.589Z,7.28
2017-03-04T00:32:54.306Z,7.2
2017-03-04T00:33:55.015Z,7.21
2017-03-04T00:34:55.723Z,7.32
2017-03-04T00:35:56.456Z,7.29
2017-03-04T00:36:57.157Z,7.25
2017-03-04T00:37:57.891Z,7.29
2017-03-04T00:38:58.621Z,7.17
2017-03-04T00:39:59.357Z,7.31
2017-03-04T00:41:00.112Z,7.2
2017-03-04T00:42:00.878Z,7.15
2017-03-04T00:43:01.606Z,7.2
2017-03-04T00:44:02.355Z,7.14
2017-03-04T00:45:03.054Z,7.17
2017-03-04T00:46:03.777Z,7.17
2017-03-04T00:47:04.499Z,7.15
2017-03-04T00:48:05.249Z,7.06
2017-03-04T00:49:05.957Z,7.1
2017-03-04T00:50:06.663Z,7.11
2017-03-04T00:51:07.385Z,7.1
2017-03-04T00:52:08.117Z,7.06
2017-03-04T00:53:08.837Z,7.15
2017-03-04T00:54:09.541Z,7.11
2017-03-04T00:55:10.254Z,7.1
2017-03-04T00:56:10.961Z,7.06
2017-03-04T00:57:11.668Z,7.11
2017-03-04T00:58:12.366Z,7.1
2017-03-04T00:59:13.091Z,7.07
2017-03-04T01:00:13.809Z,6.97
2017-03-04T01:01:14.539Z,6.97
2017-03-04T01:02:15.252Z,7.05
2017-03-04T01:03:15.970Z,6.96
2017-03-04T01:04:16.693Z,7.05
2017-03-04T01:05:17.426Z,6.95
2017-03-04T01:06:18.153Z,7
2017-03-04T01:07:18.870Z,6.99
2017-03-04T01:08:19.581Z,6.96
2017-03-04T01:09:20.280Z,6.89
2017-03-04T01:10:20.990Z,6.92
2017-03-04T01:11:21.720Z,6.97
2017-03-04T01:12:22.465Z,7.11
2017-03-04T01:13:23.180Z,6.92
2017-03-04T01:14:23.910Z,6.95
2017-03-04T01:15:24.627Z,6.93
2017-03-04T01:16:25.342Z,6.97
2017-03-04T01:17:26.073Z,6.92
2017-03-04T01:18:26.800Z,6.96
2017-03-04T01:19:27.503Z,6.92
2017-03-04T01:20:28.225Z,6.92
2017-03-04T01:21:28.943Z,6.87
2017-03-04T01:22:29.649Z,6.82
2017-03-04T01:23:30.345Z,6.77
2017-03-04T01:24:31.055Z,6.74
2017-03-04T01:25:31.809Z,6.75
2017-03-04T01:26:32.514Z,6.77
2017-03-04T01:27:33.252Z,6.72
2017-03-04T01:28:34.032Z,6.67
2017-03-04T01:29:34.786Z,6.7
2017-03-04T01:30:35.499Z,6.75
2017-03-04T01:31:36.211Z,6.72
2017-03-04T01:32:36.912Z,6.67
2017-03-04T01:33:37.619Z,6.72
2017-03-04T01:34:38.345Z,6.75
2017-03-04T01:35:39.128Z,6.72
2017-03-04T01:36:39.842Z,6.7
2017-03-04T01:37:40.559Z,6.72
2017-03-04T01:38:41.271Z,6.64
2017-03-04T01:39:42.006Z,6.67
2017-03-04T01:40:42.734Z,6.75
2017-03-04T01:41:43.464Z,6.69
2017-03-04T01:42:44.154Z,6.74
2017-03-04T01:43:44.866Z,6.63
2017-03-04T01:44:45.588Z,6.69
2017-03-04T01:45:46.291Z,6.64
2017-03-04T01:46:47.030Z,6.57
2017-03-04T01:47:47.744Z,6.63
2017-03-04T01:48:48.456Z,6.63
2017-03-04T01:49:49.170Z,6.59
2017-03-04T01:50:49.864Z,6.66
2017-03-04T01:51:50.559Z,6.56
2017-03-04T01:52:51.277Z,6.57
2017-03-04T01:53:51.986Z,6.64
2017-03-04T01:54:52.697Z,6.72
2017-03-04T01:55:53.457Z,6.69
2017-03-04T01:56:54.190Z,6.63
2017-03-04T01:57:54.907Z,6.66
2017-03-04T01:58:55.629Z,6.7
2017-03-04T01:59:56.355Z,6.75
2017-03-04T02:00:57.055Z,6.74
2017-03-04T02:01:57.790Z,6.7
2017-03-04T02:02:58.484Z,6.6
2017-03-04T02:03:59.203Z,6.74
2017-03-04T02:04:59.906Z,6.72
2017-03-04T02:06:00.631Z,6.67
2017-03-04T02:07:01.374Z,6.69
2017-03-04T02:08:02.093Z,6.69
2017-03-04T02:09:02.796Z,6.63
2017-03-04T02:10:03.516Z,6.67
2017-03-04T02:11:04.217Z,6.7
2017-03-04T02:12:04.964Z,6.75
2017-03-04T02:13:05.676Z,6.59
2017-03-04T02:14:06.400Z,6.57
2017-03-04T02:15:07.117Z,6.59
2017-03-04T02:16:07.846Z,6.59
2017-03-04T02:17:08.566Z,6.64
2017-03-04T02:18:23.813Z,6.59
2017-03-04T02:19:24.541Z,6.57
2017-03-04T02:20:25.262Z,6.59
2017-03-04T02:21:25.983Z,6.72
2017-03-04T02:22:26.792Z,6.72
2017-03-04T02:23:27.480Z,6.7
2017-03-04T02:24:28.212Z,6.74
2017-03-04T02:25:28.927Z,6.69
2017-03-04T02:26:29.646Z,6.69
2017-03-04T02:27:30.355Z,6.59
2017-03-04T02:28:31.092Z,6.69
2017-03-04T02:29:31.806Z,6.6
2017-03-04T02:30:32.594Z,6.6
2017-03-04T02:31:33.297Z,6.62
2017-03-04T02:32:34.041Z,6.54
2017-03-04T02:33:34.809Z,6.59
2017-03-04T02:34:35.560Z,6.63
2017-03-04T02:35:36.262Z,6.63
2017-03-04T02:36:36.982Z,6.63
2017-03-04T02:37:37.712Z,6.63
2017-03-04T02:38:38.424Z,6.56
2017-03-04T02:39:39.177Z,6.67
2017-03-04T02:40:39.888Z,6.66
2017-03-04T02:41:40.596Z,6.63
2017-03-04T02:42:41.286Z,6.59
2017-03-04T02:43:41.998Z,6.54
2017-03-04T02:44:42.725Z,6.63
2017-03-04T02:45:43.474Z,6.62
2017-03-04T02:46:44.189Z,6.51
2017-03-04T02:47:44.911Z,6.64
2017-03-04T02:48:45.611Z,6.56
2017-03-04T02:49:46.342Z,6.51
2017-03-04T02:50:47.067Z,6.62
2017-03-04T02:51:47.778Z,6.62
2017-03-04T02:52:48.503Z,6.63
2017-03-04T02:53:49.230Z,6.63
2017-03-04T02:54:49.953Z,6.63
2017-03-04T02:55:50.669Z,6.59
2017-03-04T02:56:51.399Z,6.57
2017-03-04T02:57:52.110Z,6.59
2017-03-04T02:58:52.827Z,6.63
2017-03-04T02:59:53.534Z,6.63
2017-03-04T03:00:54.256Z,6.56
2017-03-04T03:01:54.982Z,6.64
2017-03-04T03:02:55.726Z,6.66
2017-03-04T03:03:56.440Z,6.63
2017-03-04T03:04:57.153Z,6.63
2017-03-04T03:05:57.873Z,6.64
2017-03-04T03:06:58.594Z,6.63
2017-03-04T03:07:59.302Z,6.59
2017-03-04T03:09:00.014Z,6.62
2017-03-04T03:10:00.751Z,6.63
2017-03-04T03:11:01.475Z,6.64
2017-03-04T03:12:02.215Z,6.67
2017-03-04T03:13:02.940Z,6.64
2017-03-04T03:14:03.661Z,6.62
2017-03-04T03:15:04.385Z,6.59
2017-03-04T03:16:05.092Z,6.6
2017-03-04T03:17:05.900Z,6.59
2017-03-04T03:18:06.622Z,6.57
2017-03-04T03:19:07.326Z,6.66
2017-03-04T03:20:08.036Z,6.67
2017-03-04T03:21:08.762Z,6.64
2017-03-04T03:22:09.484Z,6.67
2017-03-04T03:23:10.201Z,6.6
2017-03-04T03:24:10.901Z,6.67
2017-03-04T03:25:11.596Z,6.59
2017-03-04T03:26:12.302Z,6.59
2017-03-04T03:27:13.009Z,6.62
2017-03-04T03:28:13.712Z,6.66
2017-03-04T03:29:14.423Z,6.63
2017-03-04T03:30:15.131Z,6.62
2017-03-04T03:31:15.861Z,6.66
2017-03-04T03:32:16.567Z,6.66
2017-03-04T03:33:17.277Z,6.67
2017-03-04T03:34:17.990Z,6.59
2017-03-04T03:35:18.708Z,6.56
2017-03-04T03:36:19.410Z,6.63
2017-03-04T03:37:20.123Z,6.72
2017-03-04T03:38:20.851Z,6.59
2017-03-04T03:39:21.578Z,6.63
2017-03-04T03:40:22.307Z,6.6
2017-03-04T03:41:23.028Z,6.59
2017-03-04T03:42:23.736Z,6.66
2017-03-04T03:43:24.458Z,6.62
2017-03-04T03:44:25.161Z,6.56
2017-03-04T03:45:25.899Z,6.7
2017-03-04T03:46:26.599Z,6.63
2017-03-04T03:47:27.311Z,6.69
2017-03-04T03:48:28.016Z,6.69
2017-03-04T03:49:28.727Z,6.75
2017-03-04T03:50:29.436Z,6.64
2017-03-04T03:51:30.149Z,6.7
2017-03-04T03:52:30.888Z,6.7
2017-03-04T03:53:31.612Z,6.72
2017-03-04T03:54:32.324Z,6.72
2017-03-04T03:55:33.052Z,6.67
2017-03-04T03:56:33.796Z,6.67
2017-03-04T03:57:34.522Z,6.7
2017-03-04T03:58:35.279Z,6.6
2017-03-04T03:59:36.024Z,6.69
2017-03-04T04:00:36.763Z,6.69
2017-03-04T04:01:37.447Z,6.66
2017-03-04T04:02:38.170Z,6.57
2017-03-04T04:03:38.874Z,6.62
2017-03-04T04:04:39.683Z,6.62
2017-03-04T04:05:40.341Z,6.63
2017-03-04T04:06:41.064Z,6.63
2017-03-04T04:07:41.787Z,6.62
2017-03-04T04:08:42.542Z,6.6
2017-03-04T04:09:43.330Z,6.52
2017-03-04T04:10:44.070Z,6.64
2017-03-04T04:11:44.790Z,6.6
2017-03-04T04:12:45.532Z,6.56
2017-03-04T04:13:46.278Z,6.56
2017-03-04T04:14:47.024Z,6.63
2017-03-04T04:15:47.770Z,6.54
2017-03-04T04:16:48.511Z,6.57
2017-03-04T04:17:49.233Z,6.51
2017-03-04T04:18:49.969Z,6.54
2017-03-04T04:19:50.747Z,6.52
2017-03-04T04:20:51.469Z,6.48
2017-03-04T04:21:52.185Z,6.51
2017-03-04T04:22:52.923Z,6.48
2017-03-04T04:23:53.674Z,6.54
2017-03-04T04:24:54.410Z,6.54
2017-03-04T04:25:55.152Z,6.51
2017-03-04T04:26:55.901Z,6.52
2017-03-04T04:27:56.583Z,6.52
2017-03-04T04:28:57.309Z,6.51
2017-03-04T04:29:58.015Z,6.49
2017-03-04T04:30:58.728Z,6.51
2017-03-04T04:31:59.467Z,6.42
2017-03-04T04:33:00.191Z,6.44
2017-03-04T04:34:00.945Z,6.44
2017-03-04T04:35:01.677Z,6.46
2017-03-04T04:36:02.404Z,6.41
2017-03-04T04:37:03.139Z,6.38
2017-03-04T04:38:03.853Z,6.38
2017-03-04T04:39:04.586Z,6.27
2017-03-04T04:40:05.339Z,6.27
2017-03-04T04:41:06.057Z,6.33
2017-03-04T04:42:06.774Z,6.35
2017-03-04T04:43:07.499Z,6.33
2017-03-04T04:44:08.240Z,6.33
2017-03-04T04:45:08.970Z,6.27
2017-03-04T04:46:09.690Z,6.3
2017-03-04T04:47:10.413Z,6.27
2017-03-04T04:48:11.121Z,6.3
2017-03-04T04:49:11.842Z,6.28
2017-03-04T04:50:12.558Z,6.33
2017-03-04T04:51:13.296Z,6.3
2017-03-04T04:52:14.022Z,6.3
2017-03-04T04:53:14.748Z,6.26
2017-03-04T04:54:15.464Z,6.35
2017-03-04T04:55:16.187Z,6.26
2017-03-04T04:56:16.880Z,6.3
2017-03-04T04:57:17.605Z,6.24
2017-03-04T04:58:18.322Z,6.2
2017-03-04T04:59:19.030Z,6.2
2017-03-04T05:00:19.764Z,6.27
2017-03-04T05:01:20.471Z,6.17
2017-03-04T05:02:21.215Z,6.16
2017-03-04T05:03:21.969Z,6.14
2017-03-04T05:04:22.677Z,6.19
2017-03-04T05:05:23.376Z,6.22
2017-03-04T05:06:24.099Z,6.2
2017-03-04T05:07:24.810Z,6.2
2017-03-04T05:08:25.560Z,6.2
2017-03-04T05:09:26.294Z,6.16
2017-03-04T05:10:27.027Z,6.07
2017-03-04T05:11:27.744Z,6.05
2017-03-04T05:12:28.457Z,6.09
2017-03-04T05:13:29.167Z,6.04
2017-03-04T05:14:29.890Z,6.07
2017-03-04T05:15:30.593Z,6.01
2017-03-04T05:16:31.307Z,6.08
2017-03-04T05:17:32.004Z,6.05
2017-03-04T05:18:32.752Z,5.99
2017-03-04T05:19:33.474Z,6.04
2017-03-04T05:20:34.185Z,6.05
2017-03-04T05:21:34.908Z,6.01
2017-03-04T05:22:35.631Z,6.04
2017-03-04T05:23:36.348Z,6.01
2017-03-04T05:24:37.100Z,6.02
2017-03-04T05:25:37.812Z,6.04
2017-03-04T05:26:38.520Z,6.01
2017-03-04T05:27:39.247Z,5.98
2017-03-04T05:28:39.952Z,6.04
2017-03-04T05:29:40.663Z,5.99
2017-03-04T05:30:41.386Z,6.05
2017-03-04T05:31:42.110Z,6.01
2017-03-04T05:32:42.828Z,5.97
2017-03-04T05:33:43.535Z,5.98
2017-03-04T05:34:44.240Z,5.91
2017-03-04T05:35:44.965Z,5.98
2017-03-04T05:36:45.683Z,6.02
2017-03-04T05:37:46.404Z,5.91
2017-03-04T05:38:47.635Z,5.91
2017-03-04T05:39:48.430Z,5.94
2017-03-04T05:40:49.162Z,5.91
2017-03-04T05:41:49.890Z,5.93
2017-03-04T05:42:51.378Z,5.87
2017-03-04T05:43:52.097Z,5.9
2017-03-04T05:44:52.851Z,5.9
2017-03-04T05:45:53.549Z,5.9
2017-03-04T05:46:54.292Z,5.87
2017-03-04T05:47:55.031Z,5.83
2017-03-04T05:48:55.725Z,5.73
2017-03-04T05:49:56.458Z,5.83
2017-03-04T05:50:57.165Z,5.8
2017-03-04T05:51:57.885Z,5.83
2017-03-04T05:52:58.626Z,5.82
2017-03-04T05:53:59.333Z,5.86
2017-03-04T05:55:00.060Z,5.83
2017-03-04T05:56:00.784Z,5.86
2017-03-04T05:57:01.514Z,5.82
2017-03-04T05:58:02.215Z,5.87
2017-03-04T05:59:02.940Z,5.84
2017-03-04T06:00:03.644Z,5.9
2017-03-04T06:01:04.348Z,5.9
2017-03-04T06:02:05.067Z,5.86
2017-03-04T06:03:05.787Z,5.86
2017-03-04T06:04:06.495Z,5.89
2017-03-04T06:05:07.220Z,5.9
2017-03-04T06:06:07.939Z,5.93
2017-03-04T06:07:08.674Z,5.98
2017-03-04T06:08:09.363Z,5.89
2017-03-04T06:09:10.068Z,5.94
2017-03-04T06:10:10.782Z,5.94
2017-03-04T06:11:11.530Z,5.93
2017-03-04T06:12:12.215Z,5.93
2017-03-04T06:13:12.947Z,5.84
2017-03-04T06:14:13.677Z,5.98
2017-03-04T06:15:14.397Z,5.9
2017-03-04T06:16:15.118Z,5.94
2017-03-04T06:17:15.825Z,5.91
2017-03-04T06:18:16.531Z,6.04
2017-03-04T06:19:17.249Z,5.98
2017-03-04T06:20:17.963Z,6.01
2017-03-04T06:21:18.677Z,5.99
2017-03-04T06:22:19.443Z,6.02
2017-03-04T06:23:20.192Z,6.01
2017-03-04T06:24:20.919Z,6.01
2017-03-04T06:25:21.636Z,6.01
2017-03-04T06:26:22.394Z,5.99
2017-03-04T06:27:23.120Z,6.02
2017-03-04T06:28:23.833Z,6.09
2017-03-04T06:29:24.571Z,6.11
2017-03-04T06:30:25.313Z,6.11
2017-03-04T06:31:26.125Z,6.05
2017-03-04T06:32:26.822Z,6.11
2017-03-04T06:33:27.521Z,6.11
2017-03-04T06:34:28.210Z,6.14
2017-03-04T06:35:28.947Z,6.14
2017-03-04T06:36:29.661Z,6.24
2017-03-04T06:37:30.400Z,6.16
2017-03-04T06:38:31.113Z,6.22
2017-03-04T06:39:31.827Z,6.16
2017-03-04T06:40:32.531Z,6.27
2017-03-04T06:41:33.268Z,6.26
2017-03-04T06:42:33.990Z,6.24
2017-03-04T06:43:34.693Z,6.31
2017-03-04T06:44:35.402Z,6.26
2017-03-04T06:45:36.118Z,6.3
2017-03-04T06:46:36.820Z,6.3
2017-03-04T06:47:37.521Z,6.31
2017-03-04T06:48:38.218Z,6.36
2017-03-04T06:49:38.990Z,6.33
2017-03-04T06:50:39.763Z,6.39
2017-03-04T06:51:40.479Z,6.38
2017-03-04T06:52:41.209Z,6.39
2017-03-04T06:53:41.929Z,6.38
2017-03-04T06:54:42.653Z,6.42
2017-03-04T06:55:43.383Z,6.52
2017-03-04T06:56:44.092Z,6.51
2017-03-04T06:57:45.343Z,6.52
2017-03-04T06:58:46.069Z,6.49
2017-03-04T06:59:46.769Z,6.51
2017-03-04T07:00:47.484Z,6.67
2017-03-04T07:01:48.196Z,6.63
2017-03-04T07:02:48.966Z,6.57
2017-03-04T07:03:49.677Z,6.66
2017-03-04T07:04:50.375Z,6.72
2017-03-04T07:05:51.107Z,6.72
2017-03-04T07:06:51.833Z,6.67
2017-03-04T07:07:52.549Z,6.69
2017-03-04T07:08:53.267Z,6.74
2017-03-04T07:09:54.031Z,6.79
2017-03-04T07:10:54.749Z,6.74
2017-03-04T07:11:55.494Z,6.75
2017-03-04T07:12:56.208Z,6.74
2017-03-04T07:13:56.936Z,6.78
2017-03-04T07:14:57.657Z,6.75
2017-03-04T07:15:58.353Z,6.77
2017-03-04T07:16:59.073Z,6.79
2017-03-04T07:17:59.790Z,6.78
2017-03-04T07:19:00.550Z,6.81
2017-03-04T07:20:01.276Z,6.85
2017-03-04T07:21:02.004Z,6.82
2017-03-04T07:22:02.761Z,6.88
2017-03-04T07:23:03.482Z,6.88
2017-03-04T07:24:04.218Z,6.99
2017-03-04T07:25:04.922Z,6.88
2017-03-04T07:26:05.655Z,6.96
2017-03-04T07:27:06.380Z,6.93
2017-03-04T07:28:07.091Z,6.95
2017-03-04T07:29:07.816Z,7
2017-03-04T07:30:08.548Z,7.05
2017-03-04T07:31:09.255Z,7.05
2017-03-04T07:32:09.968Z,7.07
2017-03-04T07:33:10.684Z,7.07
2017-03-04T07:34:11.404Z,7.07
2017-03-04T07:35:12.114Z,7.11
2017-03-04T07:36:12.873Z,7.2
2017-03-04T07:37:13.607Z,7.29
2017-03-04T07:38:14.329Z,7.31
2017-03-04T07:39:15.052Z,7.28
2017-03-04T07:40:15.775Z,7.31
2017-03-04T07:41:16.480Z,7.33
2017-03-04T07:42:17.193Z,7.43
2017-03-04T07:43:17.926Z,7.45
2017-03-04T07:44:18.655Z,7.56
2017-03-04T07:45:19.370Z,7.66
2017-03-04T07:46:20.089Z,7.88
2017-03-04T07:47:20.837Z,8.01
2017-03-04T07:48:21.568Z,8.09
2017-03-04T07:49:22.303Z,8.19
2017-03-04T07:50:23.067Z,8.26
2017-03-04T07:51:23.800Z,8.45
2017-03-04T07:52:24.525Z,8.45
2017-03-04T07:53:25.255Z,8.64
2017-03-04T07:54:25.960Z,8.63
2017-03-04T07:55:26.688Z,8.63
2017-03-04T07:56:27.412Z,8.46
2017-03-04T07:57:28.119Z,8.51
2017-03-04T07:58:28.873Z,8.64
2017-03-04T07:59:29.590Z,8.85
2017-03-04T08:00:30.297Z,8.91
2017-03-04T08:01:31.005Z,8.94
2017-03-04T08:02:31.721Z,9.1
2017-03-04T08:03:32.439Z,9.1
2017-03-04T08:04:33.160Z,9.06
2017-03-04T08:05:33.889Z,9.21
2017-03-04T08:06:34.604Z,9.16
2017-03-04T08:07:35.324Z,9.31
2017-03-04T08:08:36.060Z,9.28
2017-03-04T08:09:36.790Z,9.19
2017-03-04T08:10:37.519Z,9.18
2017-03-04T08:11:38.240Z,9.26
2017-03-04T08:12:38.984Z,9.29
2017-03-04T08:13:39.726Z,9.22
2017-03-04T08:14:40.457Z,9.37
2017-03-04T08:15:41.178Z,9.34
2017-03-04T08:16:41.909Z,9.55
2017-03-04T08:17:42.679Z,9.64
2017-03-04T08:18:43.435Z,9.66
2017-03-04T08:19:44.188Z,9.86
2017-03-04T08:20:44.943Z,9.98
2017-03-04T08:21:45.670Z,9.83
2017-03-04T08:22:46.396Z,9.99
2017-03-04T08:23:47.147Z,10.09
2017-03-04T08:24:47.870Z,10.09
2017-03-04T08:25:48.592Z,9.94
2017-03-04T08:26:49.314Z,10.15
2017-03-04T08:27:50.062Z,10.09
2017-03-04T08:28:50.788Z,10.12
2017-03-04T08:29:51.536Z,10.1
2017-03-04T08:30:52.274Z,10.15
2017-03-04T08:31:53.565Z,10.16
2017-03-04T08:32:54.312Z,10.19
2017-03-04T08:33:55.065Z,10.23
2017-03-04T08:34:55.811Z,10.23
2017-03-04T08:35:56.562Z,10.17
2017-03-04T08:36:57.297Z,10.23
2017-03-04T08:37:58.026Z,10.2
2017-03-04T08:38:58.833Z,10.16
2017-03-04T08:39:59.514Z,10.25
2017-03-04T08:41:00.295Z,10.2
2017-03-04T08:42:01.108Z,10.26
2017-03-04T08:43:02.156Z,10.31
2017-03-04T08:44:02.904Z,10.22
2017-03-04T08:45:03.650Z,10.2
2017-03-04T08:46:04.398Z,10.25
2017-03-04T08:47:05.156Z,10.13
2017-03-04T08:48:05.922Z,10.2
2017-03-04T08:49:06.680Z,10.07
2017-03-04T08:50:07.425Z,10.12
2017-03-04T08:51:08.237Z,10.28
2017-03-04T08:52:08.966Z,10.22
2017-03-04T08:53:09.708Z,10.23
2017-03-04T08:54:10.449Z,10.2
2017-03-04T08:55:11.203Z,10.3
2017-03-04T08:56:11.935Z,10.3
2017-03-04T08:57:12.671Z,10.4
2017-03-04T08:58:13.420Z,10.34
2017-03-04T08:59:14.159Z,10.48
2017-03-04T09:00:14.904Z,10.35
2017-03-04T09:01:15.627Z,10.31
2017-03-04T09:02:16.362Z,10.4
2017-03-04T09:03:17.115Z,10.57
2017-03-04T09:04:17.865Z,10.71
2017-03-04T09:05:18.616Z,10.71
2017-03-04T09:06:19.367Z,10.64
2017-03-04T09:07:20.102Z,10.67
2017-03-04T09:08:20.825Z,10.63
2017-03-04T09:09:21.541Z,10.68
2017-03-04T09:10:22.293Z,10.64
2017-03-04T09:11:23.023Z,10.53
2017-03-04T09:12:23.810Z,10.54
2017-03-04T09:13:24.553Z,10.49
2017-03-04T09:14:25.289Z,10.54
2017-03-04T09:15:26.043Z,10.57
2017-03-04T09:16:26.770Z,10.59
2017-03-04T09:17:27.505Z,10.49
2017-03-04T09:18:28.259Z,10.42
2017-03-04T09:19:28.959Z,10.42
2017-03-04T09:20:29.711Z,10.56
2017-03-04T09:21:30.439Z,10.51
2017-03-04T09:22:31.178Z,10.54
2017-03-04T09:23:31.932Z,10.48
2017-03-04T09:24:32.665Z,10.63
2017-03-04T09:25:33.395Z,10.63
2017-03-04T09:26:34.120Z,10.54
2017-03-04T09:27:34.859Z,10.54
2017-03-04T09:28:35.614Z,10.53
2017-03-04T09:29:36.370Z,10.59
2017-03-04T09:30:37.150Z,10.63
2017-03-04T09:31:37.875Z,10.63
2017-03-04T09:32:38.642Z,10.64
2017-03-04T09:33:39.839Z,10.75
2017-03-04T09:34:40.627Z,10.63
2017-03-04T09:35:41.359Z,10.63
2017-03-04T09:36:42.089Z,10.67
2017-03-04T09:37:42.847Z,10.69
2017-03-04T09:38:43.593Z,10.63
2017-03-04T09:39:44.351Z,10.64
2017-03-04T09:40:45.087Z,10.46
2017-03-04T09:41:45.866Z,10.56
2017-03-04T09:42:46.644Z,10.41
2017-03-04T09:43:47.369Z,10.41
2017-03-04T09:44:48.168Z,10.44
2017-03-04T09:45:49.153Z,10.41
2017-03-04T09:46:50.159Z,10.41
2017-03-04T09:47:51.054Z,10.41
2017-03-04T09:48:51.819Z,10.44
2017-03-04T09:49:52.556Z,10.46
2017-03-04T09:50:53.315Z,10.37
2017-03-04T09:51:54.094Z,10.44
2017-03-04T09:52:54.896Z,10.37
2017-03-04T09:53:55.638Z,10.4
2017-03-04T09:54:56.367Z,10.42
2017-03-04T09:55:57.090Z,10.41
2017-03-04T09:56:57.826Z,10.38
2017-03-04T09:57:58.553Z,10.4
2017-03-04T09:58:59.288Z,10.38
2017-03-04T10:00:00.067Z,10.42
2017-03-04T10:01:00.840Z,10.46
2017-03-04T10:02:01.573Z,10.56
2017-03-04T10:03:02.548Z,10.54
2017-03-04T10:04:03.422Z,10.53
2017-03-04T10:05:04.151Z,10.59
2017-03-04T10:06:04.883Z,10.54
2017-03-04T10:07:05.634Z,10.57
2017-03-04T10:08:06.358Z,10.67
2017-03-04T10:09:07.136Z,10.61
2017-03-04T10:10:07.921Z,10.64
2017-03-04T10:11:08.666Z,10.63
2017-03-04T10:12:09.412Z,10.6
2017-03-04T10:13:10.148Z,10.71
2017-03-04T10:14:10.904Z,10.67
2017-03-04T10:15:11.660Z,10.76
2017-03-04T10:16:12.519Z,10.68
2017-03-04T10:17:13.256Z,10.72
2017-03-04T10:18:13.965Z,10.67
2017-03-04T10:19:14.701Z,10.78
2017-03-04T10:20:15.480Z,10.61
2017-03-04T10:21:16.221Z,10.68
2017-03-04T10:22:17.178Z,10.79
2017-03-04T10:23:17.926Z,10.68
2017-03-04T10:24:18.832Z,10.71
2017-03-04T10:25:19.596Z,10.78
2017-03-04T10:26:20.349Z,10.84
2017-03-04T10:27:21.139Z,10.94
2017-03-04T10:28:21.862Z,10.93
2017-03-04T10:29:22.583Z,10.96
2017-03-04T10:30:23.317Z,10.96
2017-03-04T10:31:24.072Z,10.92
2017-03-04T10:32:24.864Z,10.99
2017-03-04T10:33:25.617Z,11.05
2017-03-04T10:34:26.348Z,11
2017-03-04T10:35:27.069Z,11.1
2017-03-04T10:36:27.801Z,11.07
2017-03-04T10:37:28.569Z,11.26
2017-03-04T10:38:29.317Z,11.25
2017-03-04T10:39:30.059Z,11.36
2017-03-04T10:40:30.818Z,11.43
2017-03-04T10:41:31.541Z,11.44
2017-03-04T10:42:32.271Z,11.47
2017-03-04T10:43:33.036Z,11.5
2017-03-04T10:44:33.777Z,11.48
2017-03-04T10:45:34.540Z,11.5
2017-03-04T10:46:35.302Z,11.52
2017-03-04T10:47:36.023Z,11.55
2017-03-04T10:48:36.764Z,11.47
2017-03-04T10:49:37.510Z,11.48
2017-03-04T10:50:38.263Z,11.51
2017-03-04T10:51:39.044Z,11.45
2017-03-04T10:52:39.808Z,11.5
2017-03-04T10:53:40.537Z,11.44
2017-03-04T10:54:41.307Z,11.55
2017-03-04T10:55:42.050Z,11.57
2017-03-04T10:56:42.799Z,11.65
2017-03-04T10:57:43.538Z,11.65
2017-03-04T10:58:44.278Z,11.65
2017-03-04T10:59:45.077Z,11.54
2017-03-04T11:00:45.790Z,11.59
2017-03-04T11:01:46.536Z,11.52
2017-03-04T11:02:47.260Z,11.45
2017-03-04T11:03:48.003Z,11.51
2017-03-04T11:04:48.744Z,11.59
2017-03-04T11:05:49.483Z,11.57
2017-03-04T11:06:50.215Z,11.48
2017-03-04T11:07:50.996Z,11.52
2017-03-04T11:08:51.749Z,11.59
2017-03-04T11:09:52.495Z,11.62
2017-03-04T11:10:53.221Z,11.65
2017-03-04T11:11:53.962Z,11.68
2017-03-04T11:12:54.734Z,11.75
2017-03-04T11:13:55.461Z,11.69
2017-03-04T11:14:56.206Z,11.81
2017-03-04T11:15:56.990Z,11.9
2017-03-04T11:16:57.738Z,11.94
2017-03-04T11:17:58.479Z,11.88
2017-03-04T11:18:59.231Z,11.91
2017-03-04T11:19:59.970Z,11.91
2017-03-04T11:21:00.715Z,11.95
2017-03-04T11:22:01.446Z,12.04
2017-03-04T11:23:02.181Z,12.09
2017-03-04T11:24:02.915Z,12.06
2017-03-04T11:25:03.638Z,12.12
2017-03-04T11:26:04.400Z,12.21
2017-03-04T11:27:05.209Z,12.24
2017-03-04T11:28:05.995Z,12.29
2017-03-04T11:29:06.758Z,12.32
2017-03-04T11:30:07.495Z,12.35
2017-03-04T11:31:08.255Z,12.36
2017-03-04T11:32:09.033Z,12.5
2017-03-04T11:33:09.789Z,12.6
2017-03-04T11:34:10.574Z,12.54
2017-03-04T11:35:11.315Z,12.64
2017-03-04T11:36:12.062Z,12.58
2017-03-04T11:37:12.810Z,12.61
2017-03-04T11:38:13.551Z,12.73
2017-03-04T11:39:14.287Z,12.82
2017-03-04T11:40:15.032Z,12.83
2017-03-04T11:41:15.764Z,12.86
2017-03-04T11:42:16.493Z,12.83
2017-03-04T11:43:17.269Z,12.86
2017-03-04T11:44:18.015Z,12.75
2017-03-04T11:45:18.730Z,12.86
2017-03-04T11:46:19.475Z,12.79
2017-03-04T11:47:20.197Z,12.97
2017-03-04T11:48:20.929Z,12.94
2017-03-04T11:49:21.670Z,12.93
2017-03-04T11:50:22.420Z,12.87
2017-03-04T11:51:23.184Z,12.9
2017-03-04T11:52:23.941Z,12.93
2017-03-04T11:53:24.715Z,12.9
2017-03-04T11:54:25.461Z,12.98
2017-03-04T11:55:26.316Z,13
2017-03-04T11:56:27.247Z,12.98
2017-03-04T11:57:28.238Z,13.08
2017-03-04T11:58:29.000Z,13.08
2017-03-04T11:59:29.739Z,13.15
2017-03-04T12:00:30.492Z,13.11
2017-03-04T12:01:31.241Z,13.15
2017-03-04T12:02:31.968Z,13.19
2017-03-04T12:03:32.767Z,13.23
2017-03-04T12:04:33.532Z,13.23
2017-03-04T12:05:34.293Z,13.23
2017-03-04T12:06:35.059Z,13.38
2017-03-04T12:07:35.806Z,13.37
2017-03-04T12:08:36.584Z,13.38
2017-03-04T12:09:37.345Z,13.39
2017-03-04T12:10:38.080Z,13.44
2017-03-04T12:11:38.891Z,13.3
2017-03-04T12:12:39.602Z,13.52
2017-03-04T12:13:40.376Z,13.53
2017-03-04T12:14:41.108Z,13.53
2017-03-04T12:15:41.925Z,13.53
2017-03-04T12:16:42.733Z,13.44
2017-03-04T12:17:43.521Z,13.47
2017-03-04T12:18:44.275Z,13.54
2017-03-04T12:19:45.050Z,13.52
2017-03-04T12:20:45.772Z,13.57
2017-03-04T12:21:46.534Z,13.6
2017-03-04T12:22:47.289Z,13.62
2017-03-04T12:23:48.007Z,13.6
2017-03-04T12:24:48.741Z,13.67
2017-03-04T12:25:49.478Z,13.68
2017-03-04T12:26:50.220Z,13.59
2017-03-04T12:27:50.960Z,13.62
2017-03-04T12:28:51.734Z,13.72
2017-03-04T12:29:52.474Z,13.71
2017-03-04T12:30:53.249Z,13.78
2017-03-04T12:31:53.989Z,13.74
2017-03-04T12:32:54.745Z,13.74
2017-03-04T12:33:55.558Z,13.79
2017-03-04T12:34:56.342Z,13.72
2017-03-04T12:35:57.100Z,13.86
2017-03-04T12:36:57.821Z,13.9
2017-03-04T12:37:58.570Z,13.87
2017-03-04T12:38:59.326Z,13.86
2017-03-04T12:40:00.076Z,13.85
2017-03-04T12:41:00.824Z,13.93
2017-03-04T12:42:01.595Z,13.92
2017-03-04T12:43:02.360Z,13.89
2017-03-04T12:44:03.129Z,13.93
2017-03-04T12:45:03.859Z,13.95
2017-03-04T12:46:04.600Z,13.97
2017-03-04T12:47:05.369Z,14
2017-03-04T12:48:06.136Z,13.9
2017-03-04T12:49:06.891Z,13.96
2017-03-04T12:50:07.669Z,13.96
2017-03-04T12:51:08.407Z,13.93
2017-03-04T12:52:09.202Z,13.89
2017-03-04T12:53:09.950Z,13.95
2017-03-04T12:54:10.719Z,13.86
2017-03-04T12:55:11.471Z,13.93
2017-03-04T12:56:12.208Z,14
2017-03-04T12:57:12.940Z,14
2017-03-04T12:58:13.710Z,13.97
2017-03-04T12:59:14.467Z,14.03
2017-03-04T13:00:15.227Z,13.99
2017-03-04T13:01:15.975Z,13.92
2017-03-04T13:02:16.747Z,13.99
2017-03-04T13:03:17.494Z,13.96
2017-03-04T13:04:18.224Z,13.93
2017-03-04T13:05:18.960Z,14.05
2017-03-04T13:06:19.706Z,14.12
2017-03-04T13:07:20.431Z,13.99
2017-03-04T13:08:21.158Z,14.03
2017-03-04T13:09:21.902Z,13.99
2017-03-04T13:10:22.630Z,13.99
2017-03-04T13:11:23.386Z,14
2017-03-04T13:12:24.123Z,13.96
2017-03-04T13:13:24.844Z,14.03
2017-03-04T13:14:25.573Z,14.03
2017-03-04T13:15:26.317Z,14.08
2017-03-04T13:16:27.059Z,13.96
2017-03-04T13:17:27.805Z,14.11
2017-03-04T13:18:28.552Z,14.12
2017-03-04T13:19:29.289Z,14.1
2017-03-04T13:20:30.035Z,14.12
2017-03-04T13:21:30.775Z,14.08
2017-03-04T13:22:31.541Z,14.12